Time;durP1;ratioP1;P1;durP2;ratioP2;P2;SDS_P1;SDS_P2;PMS_P1;PMS_P2;Temp;Humidity;BMP_temperature;BMP_pressure;BME280_temperature;BME280_humidity;BME280_pressure;Samples;Min_cycle;Max_cycle;Signal;HPM_P1;HPM_P2
2022/03/12 00:00:31;;;;;;;;;;;;;;;;;;6165828;23;20686;-85
2022/03/12 00:03:17;;;;;;;;;;;;;;;;;;6141224;23;19943;-84
2022/03/12 00:05:52;;;;;;;;;;;;;;;;;;6167358;23;19951;-84
2022/03/12 00:08:46;;;;;;;;;;;;;;;;;;6167650;23;19974;-85
2022/03/12 00:11:15;;;;;;;;;;;;;;;;;;6146267;23;19928;-85
2022/03/12 00:13:41;;;;;;;;;;;;;;;;;;6169307;23;19920;-85
2022/03/12 00:16:14;;;;;;;;;;;;;;;;;;6165580;22;19990;-85
2022/03/12 00:18:42;;;;;;;;;;;;;;;;;;6214535;22;19919;-84
2022/03/12 00:21:11;;;;;;;;;;;;;;;;;;6264756;22;19919;-84
2022/03/12 00:23:49;;;;;;;;;;;;;;;;;;6240042;22;19919;-85
2022/03/12 00:26:17;;;;;;;;;;;;;;;;;;6239705;22;20033;-85
2022/03/12 00:29:04;;;;;;;;;;;;;;;;;;6179040;23;20307;-85
2022/03/12 00:31:53;;;;;;;;;;;;;;;;;;6152526;23;19920;-85
2022/03/12 00:34:22;;;;;;;;;;;;;;;;;;6150860;23;19924;-84
2022/03/12 00:36:50;;;;;;;;;;;;;;;;;;6147709;23;19991;-85
2022/03/12 00:39:17;;;;;;;;;;;;;;;;;;6148340;23;20004;-85
2022/03/12 00:41:56;;;;;;;;;;;;;;;;;;6173369;23;20364;-85
2022/03/12 00:44:23;;;;;;;;;;;;;;;;;;6147224;23;19920;-85
2022/03/12 00:46:51;;;;;;;;;;;;;;;;;;6123868;23;19924;-85
2022/03/12 00:49:18;;;;;;;;;;;;;;;;;;6149157;23;19921;-85
2022/03/12 00:51:45;;;;;;;;;;;;;;;;;;6123548;23;19920;-85
2022/03/12 00:54:12;;;;;;;;;;;;;;;;;;6122990;23;19920;-85
2022/03/12 00:56:42;;;;;;;;;;;;;;;;;;6147791;23;19916;-85
2022/03/12 00:59:15;;;;;;;;;;;;;;;;;;6170223;23;19975;-85
2022/03/12 01:01:42;;;;;;;;;;;;;;;;;;6126082;23;19923;-85
2022/03/12 01:04:10;;;;;;;;;;;;;;;;;;6151571;23;19920;-85
2022/03/12 01:06:37;;;;;;;;;;;;;;;;;;6127189;23;19924;-85
2022/03/12 01:09:04;;;;;;;;;;;;;;;;;;6122330;23;20293;-86
2022/03/12 01:11:34;;;;;;;;;;;;;;;;;;6151285;23;20342;-85
2022/03/12 01:14:01;;;;;;;;;;;;;;;;;;6150037;23;19951;-85
2022/03/12 01:16:29;;;;;;;;;;;;;;;;;;6176343;23;19971;-84
2022/03/12 01:18:56;;;;;;;;;;;;;;;;;;6177381;23;20282;-85
2022/03/12 01:21:23;;;;;;;;;;;;;;;;;;6191924;22;19915;-84
2022/03/12 01:23:50;;;;;;;;;;;;;;;;;;6243619;22;19919;-85
2022/03/12 01:26:18;;;;;;;;;;;;;;;;;;6244092;22;19954;-85
2022/03/12 01:28:45;;;;;;;;;;;;;;;;;;6270099;22;19986;-85
2022/03/12 01:31:13;;;;;;;;;;;;;;;;;;6240700;22;20430;-84
2022/03/12 01:33:40;;;;;;;;;;;;;;;;;;6240604;22;20349;-84
2022/03/12 01:36:07;;;;;;;;;;;;;;;;;;6268463;22;19930;-84
2022/03/12 01:38:35;;;;;;;;;;;;;;;;;;6270229;22;19923;-84
2022/03/12 01:41:06;;;;;;;;;;;;;;;;;;6244439;22;19995;-84
2022/03/12 01:43:35;;;;;;;;;;;;;;;;;;6243636;22;19919;-85
2022/03/12 01:46:21;;;;;;;;;;;;;;;;;;6177074;23;19917;-85
2022/03/12 01:49:18;;;;;;;;;;;;;;;;;;6117434;23;19921;-85
2022/03/12 01:51:48;;;;;;;;;;;;;;;;;;6092092;23;19925;-85
2022/03/12 01:54:16;;;;;;;;;;;;;;;;;;6093685;23;20293;-84
2022/03/12 01:56:44;;;;;;;;;;;;;;;;;;6093149;23;19928;-84
2022/03/12 01:59:11;;;;;;;;;;;;;;;;;;6067857;23;19925;-85
2022/03/12 02:01:38;;;;;;;;;;;;;;;;;;6069174;23;19996;-85
2022/03/12 02:04:06;;;;;;;;;;;;;;;;;;6093761;23;19991;-85
2022/03/12 02:06:32;;;;;;;;;;;;;;;;;;6069289;23;19921;-84
2022/03/12 02:09:00;;;;;;;;;;;;;;;;;;6115334;23;19932;-85
2022/03/12 02:11:27;;;;;;;;;;;;;;;;;;6068611;23;19925;-85
2022/03/12 02:14:04;;;;;;;;;;;;;;;;;;6116801;23;19925;-85
2022/03/12 02:16:31;;;;;;;;;;;;;;;;;;6078141;23;19916;-85
2022/03/12 02:18:59;;;;;;;;;;;;;;;;;;6126091;23;19924;-85
2022/03/12 02:21:26;;;;;;;;;;;;;;;;;;6153920;23;19916;-85
2022/03/12 02:23:53;;;;;;;;;;;;;;;;;;6128222;23;19923;-85
2022/03/12 02:26:20;;;;;;;;;;;;;;;;;;6128412;23;19920;-85
2022/03/12 02:28:47;;;;;;;;;;;;;;;;;;6152378;23;19927;-85
2022/03/12 02:31:15;;;;;;;;;;;;;;;;;;6150071;23;20490;-85
2022/03/12 02:34:02;;;;;;;;;;;;;;;;;;6121205;23;19917;-85
2022/03/12 02:36:29;;;;;;;;;;;;;;;;;;6097492;23;20287;-85
2022/03/12 02:38:57;;;;;;;;;;;;;;;;;;6105850;23;19967;-85
2022/03/12 02:41:24;;;;;;;;;;;;;;;;;;6152888;23;19928;-85
2022/03/12 02:43:51;;;;;;;;;;;;;;;;;;6152229;23;19979;-85
2022/03/12 02:46:18;;;;;;;;;;;;;;;;;;6152548;23;19983;-84
2022/03/12 02:48:46;;;;;;;;;;;;;;;;;;6176404;23;19987;-86
2022/03/12 02:51:13;;;;;;;;;;;;;;;;;;6151002;23;19923;-86
2022/03/12 02:53:59;;;;;;;;;;;;;;;;;;6151120;23;19982;-85
2022/03/12 02:56:25;;;;;;;;;;;;;;;;;;6175627;23;20297;-85
2022/03/12 02:58:52;;;;;;;;;;;;;;;;;;6151860;23;19921;-85
2022/03/12 03:01:18;;;;;;;;;;;;;;;;;;6149809;23;19920;-86
2022/03/12 03:03:50;;;;;;;;;;;;;;;;;;6174867;23;19923;-86
2022/03/12 03:06:18;;;;;;;;;;;;;;;;;;6148188;23;19920;-85
2022/03/12 03:08:46;;;;;;;;;;;;;;;;;;6150730;23;19966;-86
2022/03/12 03:11:13;;;;;;;;;;;;;;;;;;6149456;23;19916;-85
2022/03/12 03:13:44;;;;;;;;;;;;;;;;;;6151603;23;19916;-85
2022/03/12 03:16:11;;;;;;;;;;;;;;;;;;6151231;23;19928;-85
2022/03/12 03:18:39;;;;;;;;;;;;;;;;;;6151198;23;19929;-85
2022/03/12 03:21:09;;;;;;;;;;;;;;;;;;6176117;23;19920;-85
2022/03/12 03:23:37;;;;;;;;;;;;;;;;;;6128549;23;19971;-85
2022/03/12 03:26:04;;;;;;;;;;;;;;;;;;6127947;23;19951;-85
2022/03/12 03:28:31;;;;;;;;;;;;;;;;;;6127556;23;20466;-85
2022/03/12 03:30:58;;;;;;;;;;;;;;;;;;6126238;23;19987;-85
2022/03/12 03:33:25;;;;;;;;;;;;;;;;;;6151647;23;19923;-85
2022/03/12 03:35:52;;;;;;;;;;;;;;;;;;6151244;23;19928;-85
2022/03/12 03:38:19;;;;;;;;;;;;;;;;;;6168458;23;19950;-85
2022/03/12 03:40:47;;;;;;;;;;;;;;;;;;6187873;23;19969;-85
2022/03/12 03:43:14;;;;;;;;;;;;;;;;;;6212687;23;19947;-84
2022/03/12 03:45:41;;;;;;;;;;;;;;;;;;6212983;23;19923;-85
2022/03/12 03:48:22;;;;;;;;;;;;;;;;;;6154712;23;19926;-85
2022/03/12 03:50:49;;;;;;;;;;;;;;;;;;6150802;23;20022;-85
2022/03/12 03:53:17;;;;;;;;;;;;;;;;;;6125900;23;19972;-85
2022/03/12 03:55:44;;;;;;;;;;;;;;;;;;6151942;23;19952;-85
2022/03/12 03:58:12;;;;;;;;;;;;;;;;;;6126668;23;19953;-85
2022/03/12 04:00:39;;;;;;;;;;;;;;;;;;6151663;23;19943;-85
2022/03/12 04:03:06;;;;;;;;;;;;;;;;;;6151593;23;20313;-85
2022/03/12 04:05:55;;;;;;;;;;;;;;;;;;6176694;23;19922;-85
2022/03/12 04:08:22;;;;;;;;;;;;;;;;;;6170534;23;20002;-85
2022/03/12 04:10:50;;;;;;;;;;;;;;;;;;6156149;23;19927;-85
2022/03/12 04:13:16;;;;;;;;;;;;;;;;;;6178391;23;19942;-85
2022/03/12 04:15:44;;;;;;;;;;;;;;;;;;6177890;23;19920;-85
2022/03/12 04:18:11;;;;;;;;;;;;;;;;;;6154650;23;20353;-85
2022/03/12 04:20:40;;;;;;;;;;;;;;;;;;6243131;22;19919;-85
2022/03/12 04:23:08;;;;;;;;;;;;;;;;;;6243851;22;19975;-85
2022/03/12 04:25:35;;;;;;;;;;;;;;;;;;6218275;22;19987;-85
2022/03/12 04:28:03;;;;;;;;;;;;;;;;;;6216852;22;19919;-86
2022/03/12 04:30:30;;;;;;;;;;;;;;;;;;6218695;22;19927;-85
2022/03/12 04:32:58;;;;;;;;;;;;;;;;;;6242182;22;19915;-85
2022/03/12 04:35:25;;;;;;;;;;;;;;;;;;6242651;22;20362;-85
2022/03/12 04:37:52;;;;;;;;;;;;;;;;;;6244314;22;19926;-86
2022/03/12 04:40:20;;;;;;;;;;;;;;;;;;6214005;22;19922;-85
2022/03/12 04:42:48;;;;;;;;;;;;;;;;;;6243426;22;19994;-85
2022/03/12 04:45:18;;;;;;;;;;;;;;;;;;6270129;22;19941;-85
2022/03/12 04:47:45;;;;;;;;;;;;;;;;;;6218163;22;19925;-85
2022/03/12 04:50:14;;;;;;;;;;;;;;;;;;6217475;22;19931;-85
2022/03/12 04:52:47;;;;;;;;;;;;;;;;;;6243560;22;20256;-85
2022/03/12 04:55:14;;;;;;;;;;;;;;;;;;6218071;22;20921;-85
2022/03/12 04:57:42;;;;;;;;;;;;;;;;;;6218395;22;20016;-86
2022/03/12 05:00:09;;;;;;;;;;;;;;;;;;6243499;22;19937;-85
2022/03/12 05:02:36;;;;;;;;;;;;;;;;;;6218949;22;19922;-85
2022/03/12 05:05:03;;;;;;;;;;;;;;;;;;6244925;22;20366;-85
2022/03/12 05:07:46;;;;;;;;;;;;;;;;;;6272062;22;19929;-85
2022/03/12 05:10:13;;;;;;;;;;;;;;;;;;6244813;22;20324;-85
2022/03/12 05:13:00;;;;;;;;;;;;;;;;;;6249193;22;20414;-86
2022/03/12 05:15:32;;;;;;;;;;;;;;;;;;6245106;22;19982;-86
2022/03/12 05:18:00;;;;;;;;;;;;;;;;;;6219265;22;20002;-86
2022/03/12 05:20:27;;;;;;;;;;;;;;;;;;6244723;22;20302;-85
2022/03/12 05:22:55;;;;;;;;;;;;;;;;;;6219876;22;19946;-85
2022/03/12 05:25:44;;;;;;;;;;;;;;;;;;6248597;22;19964;-86
2022/03/12 05:28:15;;;;;;;;;;;;;;;;;;6243473;22;20237;-86
2022/03/12 05:30:44;;;;;;;;;;;;;;;;;;6217149;22;19969;-85
2022/03/12 05:33:20;;;;;;;;;;;;;;;;;;6190807;22;20379;-85
2022/03/12 05:35:47;;;;;;;;;;;;;;;;;;6216200;22;19923;-85
2022/03/12 05:38:14;;;;;;;;;;;;;;;;;;6214935;22;20510;-85
2022/03/12 05:40:41;;;;;;;;;;;;;;;;;;6240331;22;19920;-85
2022/03/12 05:43:12;;;;;;;;;;;;;;;;;;6266150;22;19985;-86
2022/03/12 05:45:39;;;;;;;;;;;;;;;;;;6241989;22;20228;-85
2022/03/12 05:48:09;;;;;;;;;;;;;;;;;;6243097;22;19919;-86
2022/03/12 05:50:51;;;;;;;;;;;;;;;;;;6204165;23;19920;-86
2022/03/12 05:53:19;;;;;;;;;;;;;;;;;;6144116;23;20271;-85
2022/03/12 05:55:47;;;;;;;;;;;;;;;;;;6154452;23;19951;-85
2022/03/12 05:58:17;;;;;;;;;;;;;;;;;;6178628;23;19934;-86
2022/03/12 06:00:45;;;;;;;;;;;;;;;;;;6178713;23;19928;-85
2022/03/12 06:03:12;;;;;;;;;;;;;;;;;;6152794;23;19924;-85
2022/03/12 06:05:42;;;;;;;;;;;;;;;;;;6154348;23;19990;-85
2022/03/12 06:08:24;;;;;;;;;;;;;;;;;;6181853;23;19997;-85
2022/03/12 06:11:09;;;;;;;;;;;;;;;;;;6113719;23;20001;-85
2022/03/12 06:13:37;;;;;;;;;;;;;;;;;;6090127;23;19932;-85
2022/03/12 06:16:08;;;;;;;;;;;;;;;;;;6090078;23;19971;-85
2022/03/12 06:18:44;;;;;;;;;;;;;;;;;;6114320;23;19964;-85
2022/03/12 06:21:12;;;;;;;;;;;;;;;;;;6079033;23;19916;-85
2022/03/12 06:23:38;;;;;;;;;;;;;;;;;;6150093;23;19916;-85
2022/03/12 06:26:14;;;;;;;;;;;;;;;;;;6123773;23;19959;-85
2022/03/12 06:28:42;;;;;;;;;;;;;;;;;;6149561;23;19963;-86
2022/03/12 06:31:10;;;;;;;;;;;;;;;;;;6124954;23;19948;-85
2022/03/12 06:33:37;;;;;;;;;;;;;;;;;;6124959;23;19924;-86
2022/03/12 06:36:05;;;;;;;;;;;;;;;;;;6124820;23;19916;-86
2022/03/12 06:38:35;;;;;;;;;;;;;;;;;;6174420;23;19927;-86
2022/03/12 06:41:03;;;;;;;;;;;;;;;;;;6154071;22;20090;-85
2022/03/12 06:43:31;;;;;;;;;;;;;;;;;;6241208;22;19986;-85
2022/03/12 06:46:25;;;;;;;;;;;;;;;;;;6235793;23;19920;-85
2022/03/12 06:48:53;;;;;;;;;;;;;;;;;;6184442;23;19923;-85
2022/03/12 06:51:20;;;;;;;;;;;;;;;;;;6209867;23;20264;-85
2022/03/12 06:53:46;;;;;;;;;;;;;;;;;;6184948;23;19934;-85
2022/03/12 06:56:34;;;;;;;;;;;;;;;;;;6234382;23;19985;-86
2022/03/12 06:59:04;;;;;;;;;;;;;;;;;;6209960;23;19924;-85
2022/03/12 07:01:31;;;;;;;;;;;;;;;;;;6186091;23;20364;-86
2022/03/12 07:03:58;;;;;;;;;;;;;;;;;;6213030;23;19919;-85
2022/03/12 07:06:26;;;;;;;;;;;;;;;;;;6212925;23;19922;-85
2022/03/12 07:08:52;;;;;;;;;;;;;;;;;;6212767;23;20328;-85
2022/03/12 07:11:19;;;;;;;;;;;;;;;;;;6187334;23;19925;-85
2022/03/12 07:13:47;;;;;;;;;;;;;;;;;;6212420;23;19935;-86
2022/03/12 07:16:13;;;;;;;;;;;;;;;;;;6186301;23;19920;-86
2022/03/12 07:18:40;;;;;;;;;;;;;;;;;;6236590;23;19934;-86
2022/03/12 07:21:07;;;;;;;;;;;;;;;;;;6237606;23;20329;-86
2022/03/12 07:23:34;;;;;;;;;;;;;;;;;;6213064;23;19919;-86
2022/03/12 07:26:01;;;;;;;;;;;;;;;;;;6211721;23;20256;-86
2022/03/12 07:28:43;;;;;;;;;;;;;;;;;;6206073;23;20094;-85
2022/03/12 07:31:11;;;;;;;;;;;;;;;;;;6153061;23;19931;-86
2022/03/12 07:33:38;;;;;;;;;;;;;;;;;;6153282;23;20284;-85
2022/03/12 07:36:05;;;;;;;;;;;;;;;;;;6202605;23;19958;-85
2022/03/12 07:38:32;;;;;;;;;;;;;;;;;;6152285;23;19924;-85
2022/03/12 07:40:59;;;;;;;;;;;;;;;;;;6152536;23;19919;-85
2022/03/12 07:43:26;;;;;;;;;;;;;;;;;;6202428;23;19924;-86
2022/03/12 07:45:57;;;;;;;;;;;;;;;;;;6202015;23;19930;-86
2022/03/12 07:48:30;;;;;;;;;;;;;;;;;;6180127;23;19958;-86
2022/03/12 07:50:56;;;;;;;;;;;;;;;;;;6178218;23;19924;-86
2022/03/12 07:53:23;;;;;;;;;;;;;;;;;;6200906;23;19931;-85
2022/03/12 07:56:05;;;;;;;;;;;;;;;;;;6172601;23;20108;-85
2022/03/12 07:58:31;;;;;;;;;;;;;;;;;;6122429;23;20080;-86
2022/03/12 08:01:03;;;;;;;;;;;;;;;;;;6178333;23;20049;-86
2022/03/12 08:03:29;;;;;;;;;;;;;;;;;;6201976;23;19920;-86
2022/03/12 08:05:55;;;;;;;;;;;;;;;;;;6177891;23;20008;-85
2022/03/12 08:08:22;;;;;;;;;;;;;;;;;;6177672;23;19930;-85
2022/03/12 08:13:48;;;;;;;;;;;;;;;;;;6143408;23;19923;-85
2022/03/12 08:16:15;;;;;;;;;;;;;;;;;;6118478;23;19951;-85
2022/03/12 08:18:44;;;;;;;;;;;;;;;;;;6143536;23;20075;-85
2022/03/12 08:21:16;;;;;;;;;;;;;;;;;;6118536;23;19995;-85
2022/03/12 08:23:42;;;;;;;;;;;;;;;;;;6118432;23;19928;-86
2022/03/12 08:26:12;;;;;;;;;;;;;;;;;;6145942;23;19921;-87
2022/03/12 08:28:40;;;;;;;;;;;;;;;;;;6147351;23;19999;-86
2022/03/12 08:31:10;;;;;;;;;;;;;;;;;;6174982;23;19916;-86
2022/03/12 08:33:37;;;;;;;;;;;;;;;;;;6148603;23;20003;-85
2022/03/12 08:36:04;;;;;;;;;;;;;;;;;;6147964;23;20453;-86
2022/03/12 08:38:39;;;;;;;;;;;;;;;;;;6148907;23;20301;-85
2022/03/12 08:41:26;;;;;;;;;;;;;;;;;;6166895;23;19920;-86
2022/03/12 08:43:56;;;;;;;;;;;;;;;;;;6190392;22;19928;-86
2022/03/12 08:46:24;;;;;;;;;;;;;;;;;;6245126;22;19919;-86
2022/03/12 08:48:51;;;;;;;;;;;;;;;;;;6219828;22;19923;-86
2022/03/12 08:51:19;;;;;;;;;;;;;;;;;;6242144;22;19923;-86
2022/03/12 08:53:47;;;;;;;;;;;;;;;;;;6219377;22;19923;-84
2022/03/12 08:56:13;;;;;;;;;;;;;;;;;;6241498;22;20013;-84
2022/03/12 08:58:41;;;;;;;;;;;;;;;;;;6241673;22;19923;-85
2022/03/12 09:01:28;;;;;;;;;;;;;;;;;;6209277;23;20085;-85
2022/03/12 09:03:56;;;;;;;;;;;;;;;;;;6185050;23;20248;-85
2022/03/12 09:06:26;;;;;;;;;;;;;;;;;;6161018;23;19974;-85
2022/03/12 09:08:53;;;;;;;;;;;;;;;;;;6206309;23;19962;-85
2022/03/12 09:11:26;;;;;;;;;;;;;;;;;;6213126;23;20293;-85
2022/03/12 09:13:53;;;;;;;;;;;;;;;;;;6187117;23;20382;-86
2022/03/12 09:16:22;;;;;;;;;;;;;;;;;;6213127;23;19947;-86
2022/03/12 09:18:50;;;;;;;;;;;;;;;;;;6187367;23;19994;-87
2022/03/12 09:21:18;;;;;;;;;;;;;;;;;;6211957;23;20412;-85
2022/03/12 09:23:46;;;;;;;;;;;;;;;;;;6188372;23;20005;-85
2022/03/12 09:26:13;;;;;;;;;;;;;;;;;;6211368;23;20846;-85
2022/03/12 09:28:41;;;;;;;;;;;;;;;;;;6209719;23;19920;-85
2022/03/12 09:31:09;;;;;;;;;;;;;;;;;;6210486;23;19923;-84
2022/03/12 09:33:36;;;;;;;;;;;;;;;;;;6207992;23;19975;-85
2022/03/12 09:36:03;;;;;;;;;;;;;;;;;;6232680;23;20492;-85
2022/03/12 09:38:44;;;;;;;;;;;;;;;;;;6173049;23;19935;-86
2022/03/12 09:41:11;;;;;;;;;;;;;;;;;;6146728;23;20365;-87
2022/03/12 09:43:41;;;;;;;;;;;;;;;;;;6148367;23;20078;-86
2022/03/12 09:46:09;;;;;;;;;;;;;;;;;;6173420;23;19935;-86
2022/03/12 09:48:36;;;;;;;;;;;;;;;;;;6204906;23;19919;-86
2022/03/12 09:51:03;;;;;;;;;;;;;;;;;;6204015;23;20287;-85
2022/03/12 09:53:31;;;;;;;;;;;;;;;;;;6204789;23;19919;-86
2022/03/12 09:55:57;;;;;;;;;;;;;;;;;;6152045;23;19920;-85
2022/03/12 09:58:24;;;;;;;;;;;;;;;;;;6203714;23;19924;-85
2022/03/12 10:00:51;;;;;;;;;;;;;;;;;;6177258;23;19927;-85
2022/03/12 10:03:17;;;;;;;;;;;;;;;;;;6204050;23;19916;-86
2022/03/12 10:05:44;;;;;;;;;;;;;;;;;;6206621;23;19919;-86
2022/03/12 10:08:11;;;;;;;;;;;;;;;;;;6180105;23;19931;-86
2022/03/12 10:10:56;;;;;;;;;;;;;;;;;;6246035;22;19921;-86
2022/03/12 10:13:42;;;;;;;;;;;;;;;;;;6176890;23;19920;-86
2022/03/12 10:16:09;;;;;;;;;;;;;;;;;;6126917;23;19952;-86
2022/03/12 10:18:36;;;;;;;;;;;;;;;;;;6125834;23;20356;-86
2022/03/12 10:21:03;;;;;;;;;;;;;;;;;;6151073;23;20338;-86
2022/03/12 10:23:31;;;;;;;;;;;;;;;;;;6150314;23;19924;-86
2022/03/12 10:25:58;;;;;;;;;;;;;;;;;;6125811;23;20011;-86
2022/03/12 10:28:24;;;;;;;;;;;;;;;;;;6126981;23;19987;-86
2022/03/12 10:30:54;;;;;;;;;;;;;;;;;;6151661;23;19979;-86
2022/03/12 10:33:30;;;;;;;;;;;;;;;;;;6150692;23;19920;-86
2022/03/12 10:36:17;;;;;;;;;;;;;;;;;;6150526;23;20286;-86
2022/03/12 10:38:44;;;;;;;;;;;;;;;;;;6126481;23;19921;-86
2022/03/12 10:41:11;;;;;;;;;;;;;;;;;;6127461;23;19920;-86
2022/03/12 10:43:38;;;;;;;;;;;;;;;;;;6155501;23;19931;-86
2022/03/12 10:46:04;;;;;;;;;;;;;;;;;;6210328;23;19926;-86
2022/03/12 10:48:32;;;;;;;;;;;;;;;;;;6186371;23;19920;-86
2022/03/12 10:51:01;;;;;;;;;;;;;;;;;;6188864;23;19916;-86
2022/03/12 10:53:28;;;;;;;;;;;;;;;;;;6214550;23;19922;-86
2022/03/12 10:55:56;;;;;;;;;;;;;;;;;;6214495;23;19963;-85
2022/03/12 10:58:23;;;;;;;;;;;;;;;;;;6214241;23;19962;-85
2022/03/12 11:01:10;;;;;;;;;;;;;;;;;;6153782;23;19927;-86
2022/03/12 11:03:37;;;;;;;;;;;;;;;;;;6154351;23;20284;-86
2022/03/12 11:06:04;;;;;;;;;;;;;;;;;;6179100;23;20391;-86
2022/03/12 11:08:32;;;;;;;;;;;;;;;;;;6154234;23;19924;-86
2022/03/12 11:10:59;;;;;;;;;;;;;;;;;;6154057;23;19939;-86
2022/03/12 11:13:29;;;;;;;;;;;;;;;;;;6153386;23;19920;-86
2022/03/12 11:15:57;;;;;;;;;;;;;;;;;;6150912;23;19927;-86
2022/03/12 11:18:24;;;;;;;;;;;;;;;;;;6176113;23;20326;-86
2022/03/12 11:20:52;;;;;;;;;;;;;;;;;;6172615;23;19931;-86
2022/03/12 11:23:38;;;;;;;;;;;;;;;;;;6178676;23;19920;-86
2022/03/12 11:26:20;;;;;;;;;;;;;;;;;;6203469;23;19966;-85
2022/03/12 11:28:48;;;;;;;;;;;;;;;;;;6176745;23;20660;-86
2022/03/12 11:31:34;;;;;;;;;;;;;;;;;;6201191;23;19918;-87
2022/03/12 11:34:01;;;;;;;;;;;;;;;;;;6179287;23;20249;-86
2022/03/12 11:36:30;;;;;;;;;;;;;;;;;;6177846;23;20011;-86
2022/03/12 11:38:57;;;;;;;;;;;;;;;;;;6177539;23;19994;-87
2022/03/12 11:41:25;;;;;;;;;;;;;;;;;;6183225;23;19916;-86
2022/03/12 11:43:52;;;;;;;;;;;;;;;;;;6180263;23;19920;-86
2022/03/12 11:46:39;;;;;;;;;;;;;;;;;;6178943;23;20691;-86
2022/03/12 11:49:07;;;;;;;;;;;;;;;;;;6175386;23;20026;-86
2022/03/12 11:51:34;;;;;;;;;;;;;;;;;;6177134;23;19947;-86
2022/03/12 11:54:00;;;;;;;;;;;;;;;;;;6178050;23;20147;-85
2022/03/12 11:56:27;;;;;;;;;;;;;;;;;;6179564;23;19923;-87
2022/03/12 11:58:54;;;;;;;;;;;;;;;;;;6179676;23;19998;-85
2022/03/12 12:01:20;;;;;;;;;;;;;;;;;;6179677;23;19915;-85
2022/03/12 12:03:47;;;;;;;;;;;;;;;;;;6178838;23;19969;-85
2022/03/12 12:06:15;;;;;;;;;;;;;;;;;;6182290;23;19920;-85
2022/03/12 12:08:42;;;;;;;;;;;;;;;;;;6201157;23;20347;-85
2022/03/12 12:11:09;;;;;;;;;;;;;;;;;;6212384;23;20283;-86
2022/03/12 12:13:37;;;;;;;;;;;;;;;;;;6212920;23;20377;-85
2022/03/12 12:16:06;;;;;;;;;;;;;;;;;;6186795;23;19926;-85
2022/03/12 12:18:34;;;;;;;;;;;;;;;;;;6211969;23;20250;-85
2022/03/12 12:21:01;;;;;;;;;;;;;;;;;;6187028;23;19919;-85
2022/03/12 12:23:29;;;;;;;;;;;;;;;;;;6185308;23;19919;-85
2022/03/12 12:25:56;;;;;;;;;;;;;;;;;;6214553;23;19920;-85
2022/03/12 12:28:23;;;;;;;;;;;;;;;;;;6188076;23;20544;-85
2022/03/12 12:30:50;;;;;;;;;;;;;;;;;;6212842;23;19919;-85
2022/03/12 12:33:16;;;;;;;;;;;;;;;;;;6213202;23;20241;-86
2022/03/12 12:35:44;;;;;;;;;;;;;;;;;;6209249;23;19973;-85
2022/03/12 12:38:20;;;;;;;;;;;;;;;;;;6219866;22;19919;-86
2022/03/12 12:41:03;;;;;;;;;;;;;;;;;;6222335;22;20353;-85
2022/03/12 12:43:30;;;;;;;;;;;;;;;;;;6219159;22;19926;-85
2022/03/12 12:45:57;;;;;;;;;;;;;;;;;;6242700;22;19919;-85
2022/03/12 12:48:24;;;;;;;;;;;;;;;;;;6218185;22;19919;-86
2022/03/12 12:50:53;;;;;;;;;;;;;;;;;;6240810;22;19970;-85
2022/03/12 12:53:20;;;;;;;;;;;;;;;;;;6240608;22;19919;-85
2022/03/12 12:55:48;;;;;;;;;;;;;;;;;;6269053;22;19969;-86
2022/03/12 12:58:15;;;;;;;;;;;;;;;;;;6215755;22;19923;-85
2022/03/12 13:00:43;;;;;;;;;;;;;;;;;;6268071;22;19986;-85
2022/03/12 13:03:09;;;;;;;;;;;;;;;;;;6246171;22;19994;-85
2022/03/12 13:05:37;;;;;;;;;;;;;;;;;;6220345;22;20351;-86
2022/03/12 13:08:03;;;;;;;;;;;;;;;;;;6248465;22;20340;-86
2022/03/12 13:10:30;;;;;;;;;;;;;;;;;;6246285;22;19927;-85
2022/03/12 13:12:57;;;;;;;;;;;;;;;;;;6245595;22;19988;-86
2022/03/12 13:15:24;;;;;;;;;;;;;;;;;;6246719;22;19919;-86
2022/03/12 13:17:54;;;;;;;;;;;;;;;;;;6246277;22;19923;-84
2022/03/12 13:20:21;;;;;;;;;;;;;;;;;;6219428;22;20289;-84
2022/03/12 13:22:47;;;;;;;;;;;;;;;;;;6245524;22;19972;-85
2022/03/12 13:25:23;;;;;;;;;;;;;;;;;;6223884;22;19945;-83
2022/03/12 13:27:50;;;;;;;;;;;;;;;;;;6244276;22;20244;-84
2022/03/12 13:30:18;;;;;;;;;;;;;;;;;;6218158;22;20397;-85
2022/03/12 13:32:46;;;;;;;;;;;;;;;;;;6242486;22;19919;-85
2022/03/12 13:35:14;;;;;;;;;;;;;;;;;;6242337;22;19923;-84
2022/03/12 13:38:00;;;;;;;;;;;;;;;;;;6178794;23;19927;-84
2022/03/12 13:40:28;;;;;;;;;;;;;;;;;;6205336;23;20321;-85
2022/03/12 13:43:15;;;;;;;;;;;;;;;;;;6236090;23;20263;-85
2022/03/12 13:45:47;;;;;;;;;;;;;;;;;;6234852;23;19997;-85
2022/03/12 13:48:17;;;;;;;;;;;;;;;;;;6229362;23;19932;-85
2022/03/12 13:50:44;;;;;;;;;;;;;;;;;;6182847;23;20506;-84
2022/03/12 13:53:12;;;;;;;;;;;;;;;;;;6209049;23;19929;-83
2022/03/12 13:55:54;;;;;;;;;;;;;;;;;;6236471;23;19919;-84
2022/03/12 13:58:23;;;;;;;;;;;;;;;;;;6210314;23;19924;-83
2022/03/12 14:00:59;;;;;;;;;;;;;;;;;;6211849;23;19919;-84
2022/03/12 14:03:25;;;;;;;;;;;;;;;;;;6238162;23;19924;-84
2022/03/12 14:06:08;;;;;;;;;;;;;;;;;;6147467;23;20254;-84
2022/03/12 14:08:38;;;;;;;;;;;;;;;;;;6121988;23;20066;-84
2022/03/12 14:11:07;;;;;;;;;;;;;;;;;;6120701;23;19920;-84
2022/03/12 14:13:35;;;;;;;;;;;;;;;;;;6120831;23;19995;-84
2022/03/12 14:16:01;;;;;;;;;;;;;;;;;;6145845;23;19995;-84
2022/03/12 14:18:35;;;;;;;;;;;;;;;;;;6144997;23;19924;-85
2022/03/12 14:21:12;;;;;;;;;;;;;;;;;;6113920;23;20335;-85
2022/03/12 14:23:39;;;;;;;;;;;;;;;;;;6091494;23;19952;-85
2022/03/12 14:26:07;;;;;;;;;;;;;;;;;;6118318;23;19921;-84
2022/03/12 14:28:35;;;;;;;;;;;;;;;;;;6093331;23;20378;-84
2022/03/12 14:31:03;;;;;;;;;;;;;;;;;;6093512;23;19931;-85
2022/03/12 14:33:34;;;;;;;;;;;;;;;;;;6107773;23;19924;-85
2022/03/12 14:36:21;;;;;;;;;;;;;;;;;;6065374;23;19992;-85
2022/03/12 14:38:48;;;;;;;;;;;;;;;;;;6062083;23;19925;-85
2022/03/12 14:41:15;;;;;;;;;;;;;;;;;;6060923;23;19921;-84
2022/03/12 14:43:53;;;;;;;;;;;;;;;;;;6160434;23;19981;-85
2022/03/12 14:46:20;;;;;;;;;;;;;;;;;;6177696;23;19920;-84
2022/03/12 14:48:47;;;;;;;;;;;;;;;;;;6178292;23;19931;-85
2022/03/12 14:51:15;;;;;;;;;;;;;;;;;;6176258;23;19920;-84
2022/03/12 14:54:06;;;;;;;;;;;;;;;;;;6113472;23;19948;-84
2022/03/12 14:56:32;;;;;;;;;;;;;;;;;;6067835;23;20039;-84
2022/03/12 14:58:59;;;;;;;;;;;;;;;;;;6067584;23;20012;-84
2022/03/12 15:01:27;;;;;;;;;;;;;;;;;;6116448;23;19995;-84
2022/03/12 15:03:55;;;;;;;;;;;;;;;;;;6091765;23;19921;-84
2022/03/12 15:06:42;;;;;;;;;;;;;;;;;;6094245;23;20385;-85
2022/03/12 15:09:10;;;;;;;;;;;;;;;;;;6093433;23;19944;-85
2022/03/12 15:11:37;;;;;;;;;;;;;;;;;;6093929;23;19921;-85
2022/03/12 15:14:04;;;;;;;;;;;;;;;;;;6070085;23;19920;-86
2022/03/12 15:16:31;;;;;;;;;;;;;;;;;;6093499;23;19920;-85
2022/03/12 15:18:59;;;;;;;;;;;;;;;;;;6068153;23;19928;-85
2022/03/12 15:21:25;;;;;;;;;;;;;;;;;;6069339;23;20374;-85
2022/03/12 15:23:54;;;;;;;;;;;;;;;;;;6092349;23;19921;-85
2022/03/12 15:26:30;;;;;;;;;;;;;;;;;;6179664;23;20043;-85
2022/03/12 15:28:57;;;;;;;;;;;;;;;;;;6206428;23;19924;-86
2022/03/12 15:31:24;;;;;;;;;;;;;;;;;;6229399;23;19971;-85
2022/03/12 15:33:51;;;;;;;;;;;;;;;;;;6204266;23;19915;-86
2022/03/12 15:36:18;;;;;;;;;;;;;;;;;;6204449;23;19987;-86
2022/03/12 15:38:48;;;;;;;;;;;;;;;;;;6203729;23;19979;-85
2022/03/12 15:41:19;;;;;;;;;;;;;;;;;;6205348;23;19978;-86
2022/03/12 15:44:02;;;;;;;;;;;;;;;;;;6175429;23;19920;-86
2022/03/12 15:46:29;;;;;;;;;;;;;;;;;;6150185;23;20079;-86
2022/03/12 15:48:56;;;;;;;;;;;;;;;;;;6150549;23;19980;-86
2022/03/12 15:51:22;;;;;;;;;;;;;;;;;;6151769;23;20254;-86
2022/03/12 15:53:50;;;;;;;;;;;;;;;;;;6153744;23;19997;-86
2022/03/12 15:56:17;;;;;;;;;;;;;;;;;;6182935;23;19920;-86
2022/03/12 15:58:45;;;;;;;;;;;;;;;;;;6206048;23;20360;-86
2022/03/12 16:01:12;;;;;;;;;;;;;;;;;;6230188;23;20367;-86
2022/03/12 16:03:38;;;;;;;;;;;;;;;;;;6180180;23;19951;-86
2022/03/12 16:06:24;;;;;;;;;;;;;;;;;;6227008;23;19915;-86
2022/03/12 16:08:59;;;;;;;;;;;;;;;;;;6229212;23;20048;-87
2022/03/12 16:11:27;;;;;;;;;;;;;;;;;;6213785;23;19999;-86
2022/03/12 16:13:53;;;;;;;;;;;;;;;;;;6212331;23;19919;-87
2022/03/12 16:16:25;;;;;;;;;;;;;;;;;;6212628;23;19922;-86
2022/03/12 16:18:56;;;;;;;;;;;;;;;;;;6210832;23;19963;-86
2022/03/12 16:21:21;;;;;;;;;;;;;;;;;;6225320;22;20022;-86
2022/03/12 16:23:49;;;;;;;;;;;;;;;;;;6217529;22;19959;-87
2022/03/12 16:26:16;;;;;;;;;;;;;;;;;;6218164;22;20274;-86
2022/03/12 16:28:45;;;;;;;;;;;;;;;;;;6242767;22;19970;-86
2022/03/12 16:31:12;;;;;;;;;;;;;;;;;;6243431;22;19919;-86
2022/03/12 16:33:40;;;;;;;;;;;;;;;;;;6218039;22;19977;-86
2022/03/12 16:36:07;;;;;;;;;;;;;;;;;;6243074;22;19922;-86
2022/03/12 16:38:35;;;;;;;;;;;;;;;;;;6242275;22;19958;-86
2022/03/12 16:41:02;;;;;;;;;;;;;;;;;;6240284;22;19969;-86
2022/03/12 16:43:32;;;;;;;;;;;;;;;;;;6243057;22;19969;-86
2022/03/12 16:46:04;;;;;;;;;;;;;;;;;;6216382;22;19919;-87
2022/03/12 16:48:40;;;;;;;;;;;;;;;;;;6241879;22;19994;-87
2022/03/12 16:51:08;;;;;;;;;;;;;;;;;;6242405;22;19915;-87
2022/03/12 16:53:35;;;;;;;;;;;;;;;;;;6218114;22;19925;-87
2022/03/12 16:56:03;;;;;;;;;;;;;;;;;;6216824;22;20287;-86
2022/03/12 16:58:44;;;;;;;;;;;;;;;;;;6175942;23;19995;-86
2022/03/12 17:01:11;;;;;;;;;;;;;;;;;;6152237;23;19916;-86
2022/03/12 17:03:38;;;;;;;;;;;;;;;;;;6152756;23;19987;-86
2022/03/12 17:06:05;;;;;;;;;;;;;;;;;;6151969;23;19962;-86